Time;durP1;ratioP1;P1;durP2;ratioP2;P2;SDS_P1;SDS_P2;PMS_P1;PMS_P2;Temp;Humidity;BMP_temperature;BMP_pressure;BME280_temperature;BME280_humidity;BME280_pressure;Samples;Min_cycle;Max_cycle;Signal;HPM_P1;HPM_P2
2023/04/23 00:02:15;;;;;;;7.28;5.43;;;;;;;;;;5045481;28;20072;-72
2023/04/23 00:04:49;;;;;;;5.60;4.65;;;;;;;;;;5042544;28;20034;-72
2023/04/23 00:07:15;;;;;;;5.25;4.85;;;;;;;;;;5047988;28;20040;-72
2023/04/23 00:09:42;;;;;;;11.02;5.55;;;;;;;;;;5044581;28;20481;-72
2023/04/23 00:12:08;;;;;;;9.82;5.00;;;;;;;;;;5046529;28;20059;-72
2023/04/23 00:14:34;;;;;;;6.25;5.40;;;;;;;;;;5049988;28;20054;-72
2023/04/23 00:17:00;;;;;;;5.35;4.85;;;;;;;;;;5053980;28;20045;-72
2023/04/23 00:19:25;;;;;;;5.32;4.82;;;;;;;;;;5065459;28;20052;-72
2023/04/23 00:21:51;;;;;;;5.88;5.00;;;;;;;;;;5048573;28;20101;-72
2023/04/23 00:24:17;;;;;;;6.35;5.00;;;;;;;;;;5056622;28;20032;-72
2023/04/23 00:26:42;;;;;;;6.90;4.80;;;;;;;;;;5054734;28;20037;-72
2023/04/23 00:29:08;;;;;;;5.75;5.07;;;;;;;;;;5048209;28;20033;-72
2023/04/23 00:31:34;;;;;;;5.28;4.70;;;;;;;;;;5051919;28;20140;-72
2023/04/23 00:34:00;;;;;;;7.22;4.93;;;;;;;;;;5050231;28;20044;-72
2023/04/23 00:36:25;;;;;;;10.25;5.60;;;;;;;;;;5051116;28;20025;-72
2023/04/23 00:38:51;;;;;;;5.93;4.65;;;;;;;;;;5050269;28;20032;-72
2023/04/23 00:41:18;;;;;;;6.03;5.18;;;;;;;;;;5032117;28;20082;-72
2023/04/23 00:43:44;;;;;;;7.60;4.85;;;;;;;;;;5049932;28;20091;-72
2023/04/23 00:46:10;;;;;;;6.32;4.78;;;;;;;;;;5045094;28;20560;-72
2023/04/23 00:48:36;;;;;;;5.18;4.78;;;;;;;;;;5055388;28;20040;-72
2023/04/23 00:51:05;;;;;;;5.40;5.00;;;;;;;;;;5053068;28;20029;-72
2023/04/23 00:53:31;;;;;;;;;;;;;;;;;;5060022;28;20484;-72
2023/04/23 00:55:57;;;;;;;6.10;5.40;;;;;;;;;;5051007;28;19919;-72
2023/04/23 00:58:23;;;;;;;5.22;4.82;;;;;;;;;;5049992;28;20298;-72
2023/04/23 01:00:50;;;;;;;8.77;5.15;;;;;;;;;;5052754;28;20474;-71
2023/04/23 01:03:21;;;;;;;6.78;5.43;;;;;;;;;;5048149;28;20147;-71
2023/04/23 01:05:50;;;;;;;11.07;5.05;;;;;;;;;;5048135;28;20112;-72
2023/04/23 01:08:17;;;;;;;5.25;4.85;;;;;;;;;;5045455;28;20107;-71
2023/04/23 01:10:44;;;;;;;5.32;4.82;;;;;;;;;;5044924;28;20037;-71
2023/04/23 01:13:12;;;;;;;7.57;4.88;;;;;;;;;;5044166;28;20541;-71
2023/04/23 01:15:38;;;;;;;5.70;4.90;;;;;;;;;;5048661;28;20032;-71
2023/04/23 01:18:06;;;;;;;5.78;5.22;;;;;;;;;;5049508;28;20199;-71
2023/04/23 01:20:32;;;;;;;5.13;4.63;;;;;;;;;;5044706;28;20033;-71
2023/04/23 01:23:01;;;;;;;6.10;4.93;;;;;;;;;;5049827;28;20508;-71
2023/04/23 01:25:26;;;;;;;6.78;6.00;;;;;;;;;;5050446;28;20033;-72
2023/04/23 01:27:52;;;;;;;6.20;4.78;;;;;;;;;;5050485;28;20035;-71
2023/04/23 01:30:18;;;;;;;6.53;5.43;;;;;;;;;;5045786;28;20122;-71
2023/04/23 01:32:46;;;;;;;8.30;5.47;;;;;;;;;;5046966;28;20109;-71
2023/04/23 01:35:12;;;;;;;7.63;5.30;;;;;;;;;;5045950;28;20094;-71
2023/04/23 01:37:38;;;;;;;6.07;5.43;;;;;;;;;;5047104;28;20025;-71
2023/04/23 01:40:06;;;;;;;5.70;5.20;;;;;;;;;;5047062;28;20107;-71
2023/04/23 01:42:32;;;;;;;7.87;5.20;;;;;;;;;;5046980;28;20432;-71
2023/04/23 01:44:58;;;;;;;5.70;5.00;;;;;;;;;;5046607;28;20032;-71
2023/04/23 01:47:24;;;;;;;5.93;5.35;;;;;;;;;;5030819;28;20056;-71
2023/04/23 01:49:49;;;;;;;6.72;5.35;;;;;;;;;;5050566;28;20099;-71
2023/04/23 01:52:15;;;;;;;6.15;5.30;;;;;;;;;;5042104;28;20034;-71
2023/04/23 01:54:40;;;;;;;6.05;5.45;;;;;;;;;;5045878;28;20041;-71
2023/04/23 01:57:09;;;;;;;5.82;5.13;;;;;;;;;;5047909;28;20077;-71
2023/04/23 01:59:35;;;;;;;5.85;5.38;;;;;;;;;;5049462;28;20515;-70
2023/04/23 02:02:01;;;;;;;6.25;5.30;;;;;;;;;;5045391;28;20025;-70
2023/04/23 02:04:27;;;;;;;5.85;5.00;;;;;;;;;;5051641;28;20033;-70
2023/04/23 02:06:53;;;;;;;9.45;5.60;;;;;;;;;;5053507;28;20113;-70
2023/04/23 02:09:19;;;;;;;5.70;5.20;;;;;;;;;;5049620;28;20625;-70
2023/04/23 02:11:45;;;;;;;5.82;5.38;;;;;;;;;;5044845;28;20420;-70
2023/04/23 02:14:11;;;;;;;5.80;5.30;;;;;;;;;;5051323;28;20048;-70
2023/04/23 02:16:38;;;;;;;5.90;5.50;;;;;;;;;;5054769;28;20115;-70
2023/04/23 02:19:04;;;;;;;9.18;5.47;;;;;;;;;;5053271;28;20063;-70
2023/04/23 02:21:30;;;;;;;5.75;5.35;;;;;;;;;;5050278;28;20868;-70
2023/04/23 02:23:56;;;;;;;6.28;5.68;;;;;;;;;;5049338;28;20037;-70
2023/04/23 02:26:22;;;;;;;6.82;5.68;;;;;;;;;;5044863;28;20059;-70
2023/04/23 02:28:48;;;;;;;5.85;5.40;;;;;;;;;;5050753;28;20031;-70
2023/04/23 02:31:15;;;;;;;6.15;5.55;;;;;;;;;;5046529;28;20041;-70
2023/04/23 02:33:41;;;;;;;5.68;5.15;;;;;;;;;;5051049;28;20497;-70
2023/04/23 02:36:09;;;;;;;6.15;5.60;;;;;;;;;;5039705;28;20040;-70
2023/04/23 02:38:35;;;;;;;6.18;5.68;;;;;;;;;;5047742;28;20424;-70
2023/04/23 02:41:00;;;;;;;5.88;5.40;;;;;;;;;;5049499;28;20029;-70
2023/04/23 02:43:26;;;;;;;6.45;5.95;;;;;;;;;;5048543;28;20044;-70
2023/04/23 02:45:52;;;;;;;6.40;5.85;;;;;;;;;;5027448;28;20040;-70
2023/04/23 02:48:18;;;;;;;5.97;5.38;;;;;;;;;;5052127;28;20089;-70
2023/04/23 02:50:43;;;;;;;6.85;6.20;;;;;;;;;;5050549;28;20098;-70
2023/04/23 02:53:09;;;;;;;6.47;5.75;;;;;;;;;;5045123;28;20103;-71
2023/04/23 02:55:35;;;;;;;6.28;5.78;;;;;;;;;;5048376;28;20115;-70
2023/04/23 02:58:01;;;;;;;6.38;5.75;;;;;;;;;;5052558;28;20187;-68
2023/04/23 03:00:28;;;;;;;6.32;5.75;;;;;;;;;;5050371;28;20040;-70
2023/04/23 03:02:54;;;;;;;6.78;5.95;;;;;;;;;;5046197;28;20032;-70
2023/04/23 03:05:20;;;;;;;5.75;5.25;;;;;;;;;;5049089;28;20033;-70
2023/04/23 03:07:45;;;;;;;9.73;5.88;;;;;;;;;;5049642;28;20043;-70
2023/04/23 03:10:11;;;;;;;6.13;5.70;;;;;;;;;;5047816;28;20068;-70
2023/04/23 03:12:36;;;;;;;5.80;5.30;;;;;;;;;;5046635;28;20138;-69
2023/04/23 03:15:02;;;;;;;6.68;6.15;;;;;;;;;;5047322;28;20036;-69
2023/04/23 03:17:31;;;;;;;6.18;5.63;;;;;;;;;;5049234;28;20048;-70
2023/04/23 03:19:57;;;;;;;5.70;5.30;;;;;;;;;;5032032;28;20049;-70
2023/04/23 03:22:23;;;;;;;6.22;5.75;;;;;;;;;;5034929;28;20112;-70
2023/04/23 03:24:49;;;;;;;5.78;5.38;;;;;;;;;;5049900;28;20127;-70
2023/04/23 03:27:14;;;;;;;6.20;5.75;;;;;;;;;;5049517;28;20095;-70
2023/04/23 03:29:40;;;;;;;6.25;5.78;;;;;;;;;;5048852;28;20041;-70
2023/04/23 03:32:06;;;;;;;10.20;5.70;;;;;;;;;;5046416;28;20048;-70
2023/04/23 03:34:32;;;;;;;5.95;5.45;;;;;;;;;;5047074;28;20132;-70
2023/04/23 03:36:58;;;;;;;5.80;5.40;;;;;;;;;;5052584;28;20746;-69
2023/04/23 03:39:24;;;;;;;6.13;5.63;;;;;;;;;;5046504;28;20029;-70
2023/04/23 03:41:52;;;;;;;6.45;5.65;;;;;;;;;;5048240;28;20037;-70
2023/04/23 03:44:22;;;;;;;6.28;5.78;;;;;;;;;;5052049;28;20040;-70
2023/04/23 03:46:48;;;;;;;6.38;5.72;;;;;;;;;;5052256;28;20029;-70
2023/04/23 03:49:16;;;;;;;5.95;5.45;;;;;;;;;;5050899;28;20041;-70
2023/04/23 03:51:42;;;;;;;6.10;5.60;;;;;;;;;;5048281;28;20041;-70
2023/04/23 03:54:08;;;;;;;6.63;5.40;;;;;;;;;;5056333;28;20037;-70
2023/04/23 03:56:33;;;;;;;6.35;5.65;;;;;;;;;;5072665;28;20029;-70
2023/04/23 03:59:17;;;;;;;6.28;5.68;;;;;;;;;;5065038;28;20098;-70
2023/04/23 04:01:47;;;;;;;6.50;5.93;;;;;;;;;;5050124;28;20036;-70
2023/04/23 04:04:13;;;;;;;6.43;5.82;;;;;;;;;;5029060;28;20083;-70
2023/04/23 04:06:39;;;;;;;6.20;5.60;;;;;;;;;;5050535;28;20037;-73
2023/04/23 04:09:07;;;;;;;6.28;5.78;;;;;;;;;;5048188;28;20048;-73
2023/04/23 04:11:32;;;;;;;6.68;6.05;;;;;;;;;;5045963;28;20041;-73
2023/04/23 04:13:58;;;;;;;7.10;6.38;;;;;;;;;;5044428;28;20033;-73
2023/04/23 04:16:24;;;;;;;6.72;6.13;;;;;;;;;;5051375;28;20021;-72
2023/04/23 04:18:49;;;;;;;6.82;6.05;;;;;;;;;;5045536;28;20481;-74
2023/04/23 04:21:16;;;;;;;5.75;5.35;;;;;;;;;;5063404;28;20029;-71
2023/04/23 04:23:43;;;;;;;6.63;5.88;;;;;;;;;;5049160;28;20543;-71
2023/04/23 04:26:08;;;;;;;6.65;6.07;;;;;;;;;;5051089;28;20043;-71
2023/04/23 04:28:36;;;;;;;7.20;6.50;;;;;;;;;;5043889;28;20037;-71
2023/04/23 04:31:05;;;;;;;7.20;6.50;;;;;;;;;;5049714;28;20481;-72
2023/04/23 04:33:34;;;;;;;6.63;6.00;;;;;;;;;;5047547;28;20044;-72
2023/04/23 04:36:00;;;;;;;7.25;6.65;;;;;;;;;;5044603;28;20028;-72
2023/04/23 04:38:27;;;;;;;6.10;5.57;;;;;;;;;;5049002;28;20468;-71
2023/04/23 04:40:58;;;;;;;7.18;6.57;;;;;;;;;;5053286;28;20746;-71
2023/04/23 04:43:25;;;;;;;6.82;6.22;;;;;;;;;;5050287;28;20048;-72
2023/04/23 04:45:51;;;;;;;7.10;6.53;;;;;;;;;;5043515;28;20029;-72
2023/04/23 04:48:16;;;;;;;6.70;6.10;;;;;;;;;;5048291;28;20033;-71
2023/04/23 04:50:43;;;;;;;10.35;6.40;;;;;;;;;;5049957;28;20543;-72
2023/04/23 04:53:08;;;;;;;7.22;6.63;;;;;;;;;;5050876;28;20056;-71
2023/04/23 04:55:34;;;;;;;8.05;6.70;;;;;;;;;;5050128;28;20056;-72
2023/04/23 04:57:59;;;;;;;6.90;6.20;;;;;;;;;;5049087;28;20079;-72
2023/04/23 05:00:28;;;;;;;6.97;6.10;;;;;;;;;;5049944;28;20657;-71
2023/04/23 05:02:57;;;;;;;7.57;6.87;;;;;;;;;;5047753;28;20068;-72
2023/04/23 05:05:24;;;;;;;7.93;6.75;;;;;;;;;;5043206;28;20318;-72
2023/04/23 05:07:50;;;;;;;6.43;5.82;;;;;;;;;;5051135;28;20025;-73
2023/04/23 05:10:15;;;;;;;6.90;6.10;;;;;;;;;;5044739;28;20243;-72
2023/04/23 05:12:42;;;;;;;6.07;5.57;;;;;;;;;;5050170;28;20090;-72
2023/04/23 05:15:09;;;;;;;7.55;6.43;;;;;;;;;;5047493;28;20032;-72
2023/04/23 05:17:36;;;;;;;6.10;5.53;;;;;;;;;;5048353;28;20032;-72
2023/04/23 05:20:02;;;;;;;6.75;6.10;;;;;;;;;;5049316;28;20115;-72
2023/04/23 05:22:29;;;;;;;6.40;5.90;;;;;;;;;;5046363;28;20040;-73
2023/04/23 05:24:55;;;;;;;6.20;5.65;;;;;;;;;;5059022;28;20150;-72
2023/04/23 05:27:20;;;;;;;6.80;6.25;;;;;;;;;;5048127;28;20112;-72
2023/04/23 05:29:46;;;;;;;11.95;7.68;;;;;;;;;;5042660;28;20215;-72
2023/04/23 05:32:11;;;;;;;7.55;5.60;;;;;;;;;;5049412;28;20373;-72
2023/04/23 05:34:38;;;;;;;5.57;5.05;;;;;;;;;;5049429;28;20404;-72
2023/04/23 05:37:04;;;;;;;6.40;5.90;;;;;;;;;;5048287;28;20029;-72
2023/04/23 05:39:30;;;;;;;6.10;5.60;;;;;;;;;;5045809;28;20098;-72
2023/04/23 05:41:56;;;;;;;5.97;5.55;;;;;;;;;;5055880;28;20056;-72
2023/04/23 05:44:23;;;;;;;8.95;5.43;;;;;;;;;;5051848;28;20040;-71
2023/04/23 05:46:48;;;;;;;6.10;5.60;;;;;;;;;;5050300;28;20597;-71
2023/04/23 05:49:14;;;;;;;6.10;5.60;;;;;;;;;;5050260;28;20116;-72
2023/04/23 05:51:40;;;;;;;6.05;5.65;;;;;;;;;;5054099;28;20124;-72
2023/04/23 05:54:05;;;;;;;5.80;5.30;;;;;;;;;;5048954;28;20538;-71
2023/04/23 05:56:31;;;;;;;5.32;4.93;;;;;;;;;;5048973;28;20037;-72
2023/04/23 05:58:56;;;;;;;5.25;4.85;;;;;;;;;;5046577;28;20048;-72
2023/04/23 06:01:22;;;;;;;5.30;4.90;;;;;;;;;;5053165;28;20060;-72
2023/04/23 06:03:48;;;;;;;5.20;4.70;;;;;;;;;;5054910;28;20037;-71
2023/04/23 06:06:13;;;;;;;5.57;5.18;;;;;;;;;;5046954;28;20463;-72
2023/04/23 06:08:39;;;;;;;5.85;5.20;;;;;;;;;;5053340;28;20610;-72
2023/04/23 06:11:05;;;;;;;5.35;4.95;;;;;;;;;;5051515;28;20116;-72
2023/04/23 06:13:31;;;;;;;5.18;4.72;;;;;;;;;;5051818;28;20037;-72
2023/04/23 06:15:57;;;;;;;5.35;4.97;;;;;;;;;;5051280;28;20055;-72
2023/04/23 06:18:22;;;;;;;5.95;5.55;;;;;;;;;;5051007;28;20083;-72
2023/04/23 06:20:50;;;;;;;5.40;4.90;;;;;;;;;;5050310;28;20037;-72
2023/04/23 06:23:16;;;;;;;4.70;4.38;;;;;;;;;;5049540;28;20436;-72
2023/04/23 06:25:42;;;;;;;5.07;4.70;;;;;;;;;;5043085;28;20033;-73
2023/04/23 06:28:08;;;;;;;5.15;4.75;;;;;;;;;;5054614;28;20036;-72
2023/04/23 06:30:42;;;;;;;5.43;5.03;;;;;;;;;;5047960;28;20459;-70
2023/04/23 06:33:08;;;;;;;4.85;4.50;;;;;;;;;;5045730;28;20116;-70
2023/04/23 06:35:33;;;;;;;4.63;4.22;;;;;;;;;;5051471;28;20059;-71
2023/04/23 06:38:00;;;;;;;5.05;4.65;;;;;;;;;;5056182;28;20060;-70
2023/04/23 06:40:25;;;;;;;4.28;4.07;;;;;;;;;;5047644;28;20408;-70
2023/04/23 06:42:51;;;;;;;4.80;4.50;;;;;;;;;;5051102;28;20097;-72
2023/04/23 06:45:27;;;;;;;5.10;4.80;;;;;;;;;;5016468;28;20223;-72
2023/04/23 06:47:52;;;;;;;4.80;4.50;;;;;;;;;;5049859;28;20615;-72
2023/04/23 06:50:18;;;;;;;5.30;4.80;;;;;;;;;;5050078;28;20045;-72
2023/04/23 06:52:43;;;;;;;5.10;4.50;;;;;;;;;;5052951;28;20033;-71
2023/04/23 06:55:09;;;;;;;4.65;4.28;;;;;;;;;;5054075;28;20040;-71
2023/04/23 06:57:35;;;;;;;5.53;5.07;;;;;;;;;;5049861;28;20319;-71
2023/04/23 07:00:00;;;;;;;6.50;4.45;;;;;;;;;;5050909;28;20033;-71
2023/04/23 07:02:32;;;;;;;4.47;4.18;;;;;;;;;;5052262;28;20480;-71
2023/04/23 07:04:58;;;;;;;4.63;4.22;;;;;;;;;;5055874;28;20036;-71
2023/04/23 07:07:24;;;;;;;4.25;4.03;;;;;;;;;;5048805;28;20662;-70
2023/04/23 07:09:49;;;;;;;4.57;4.10;;;;;;;;;;5050905;28;20056;-71
2023/04/23 07:12:15;;;;;;;4.38;4.10;;;;;;;;;;5060728;28;20090;-70
2023/04/23 07:14:40;;;;;;;4.28;4.03;;;;;;;;;;5040539;28;20060;-71
2023/04/23 07:17:06;;;;;;;4.20;4.00;;;;;;;;;;5047707;28;20416;-71
2023/04/23 07:19:32;;;;;;;4.40;4.10;;;;;;;;;;5048495;28;20393;-71
2023/04/23 07:21:57;;;;;;;4.80;4.50;;;;;;;;;;5045900;28;20546;-71
2023/04/23 07:24:25;;;;;;;5.00;4.70;;;;;;;;;;5049153;28;20094;-71
2023/04/23 07:26:50;;;;;;;4.80;4.50;;;;;;;;;;5042322;28;20053;-70
2023/04/23 07:29:16;;;;;;;4.35;4.15;;;;;;;;;;5046134;28;20408;-71
2023/04/23 07:31:42;;;;;;;4.18;3.92;;;;;;;;;;5051791;28;20384;-71
2023/04/23 07:34:08;;;;;;;4.15;3.90;;;;;;;;;;5053142;28;20068;-71
2023/04/23 07:36:34;;;;;;;4.15;3.90;;;;;;;;;;5048420;28;20079;-71
2023/04/23 07:39:00;;;;;;;4.10;3.88;;;;;;;;;;5048497;28;20033;-71
2023/04/23 07:41:26;;;;;;;3.97;3.78;;;;;;;;;;5048104;28;20131;-71
2023/04/23 07:43:52;;;;;;;4.05;3.85;;;;;;;;;;5047871;28;20487;-71
2023/04/23 07:46:18;;;;;;;4.20;3.90;;;;;;;;;;5044831;28;20032;-71
2023/04/23 07:48:44;;;;;;;3.78;3.58;;;;;;;;;;5049640;28;20500;-72
2023/04/23 07:51:10;;;;;;;4.07;3.88;;;;;;;;;;5044107;28;20037;-71
2023/04/23 07:53:35;;;;;;;3.50;3.28;;;;;;;;;;5046556;28;20047;-71
2023/04/23 07:56:01;;;;;;;4.88;3.22;;;;;;;;;;5048700;28;20032;-72
2023/04/23 07:58:26;;;;;;;3.33;3.13;;;;;;;;;;5052401;28;20032;-71
2023/04/23 08:00:52;;;;;;;3.42;3.22;;;;;;;;;;5047125;28;20040;-71
2023/04/23 08:03:18;;;;;;;2.90;2.80;;;;;;;;;;5048906;28;20451;-71
2023/04/23 08:05:44;;;;;;;3.40;3.10;;;;;;;;;;5045042;28;20059;-71
2023/04/23 08:08:11;;;;;;;3.47;3.17;;;;;;;;;;5051943;28;20162;-72
2023/04/23 08:10:37;;;;;;;3.78;3.40;;;;;;;;;;5045420;28;20025;-71
2023/04/23 08:13:02;;;;;;;20.73;13.88;;;;;;;;;;5050664;28;20540;-71
2023/04/23 08:15:28;;;;;;;3.10;3.00;;;;;;;;;;5050045;28;20025;-71
2023/04/23 08:17:54;;;;;;;3.58;3.38;;;;;;;;;;5053016;28;20033;-72
2023/04/23 08:20:19;;;;;;;3.80;3.60;;;;;;;;;;5046706;28;20070;-71
2023/04/23 08:22:45;;;;;;;3.45;3.25;;;;;;;;;;5050724;28;20116;-71
2023/04/23 08:25:14;;;;;;;3.72;3.53;;;;;;;;;;5050662;28;20033;-71
2023/04/23 08:27:39;;;;;;;4.10;3.90;;;;;;;;;;5049087;28;20063;-71
2023/04/23 08:30:07;;;;;;;4.15;3.85;;;;;;;;;;5045519;28;20025;-71
2023/04/23 08:32:32;;;;;;;4.13;3.75;;;;;;;;;;5050632;28;20075;-71
2023/04/23 08:34:58;;;;;;;3.70;3.50;;;;;;;;;;5042266;28;20512;-71
2023/04/23 08:37:24;;;;;;;3.83;3.60;;;;;;;;;;5045105;28;20116;-72
2023/04/23 08:39:49;;;;;;;4.55;3.70;;;;;;;;;;5046641;28;20040;-72
2023/04/23 08:42:28;;;;;;;3.85;3.65;;;;;;;;;;5049970;28;20036;-71
2023/04/23 08:44:54;;;;;;;4.07;3.85;;;;;;;;;;5045852;28;20036;-71
2023/04/23 08:47:22;;;;;;;3.75;3.55;;;;;;;;;;5042137;28;20108;-71
2023/04/23 08:49:52;;;;;;;3.90;3.60;;;;;;;;;;5048320;28;20037;-71
2023/04/23 08:52:22;;;;;;;4.03;3.55;;;;;;;;;;5046551;28;20385;-72
2023/04/23 08:54:51;;;;;;;3.80;3.60;;;;;;;;;;5045451;28;20043;-71
2023/04/23 08:57:17;;;;;;;3.78;3.47;;;;;;;;;;5048535;28;20033;-71
2023/04/23 08:59:45;;;;;;;3.80;3.60;;;;;;;;;;5050260;28;20029;-72
2023/04/23 09:02:11;;;;;;;3.78;3.50;;;;;;;;;;5047840;28;20040;-72
2023/04/23 09:04:37;;;;;;;3.35;3.20;;;;;;;;;;5046723;28;20730;-72
2023/04/23 09:07:03;;;;;;;4.07;3.67;;;;;;;;;;5048381;28;20082;-71
2023/04/23 09:09:29;;;;;;;3.88;3.60;;;;;;;;;;5047486;28;20032;-72
2023/04/23 09:11:56;;;;;;;3.70;3.50;;;;;;;;;;5053942;28;20044;-72
2023/04/23 09:14:25;;;;;;;3.58;3.38;;;;;;;;;;5046094;28;20067;-72
2023/04/23 09:16:51;;;;;;;3.45;3.25;;;;;;;;;;5048299;28;20424;-71
2023/04/23 09:19:18;;;;;;;3.63;3.40;;;;;;;;;;5046741;28;20044;-72
2023/04/23 09:21:45;;;;;;;3.28;3.17;;;;;;;;;;5023844;28;20507;-72
2023/04/23 09:24:11;;;;;;;3.28;3.10;;;;;;;;;;5048966;28;20112;-72
2023/04/23 09:26:45;;;;;;;3.20;3.00;;;;;;;;;;5044503;28;20497;-72
2023/04/23 09:29:20;;;;;;;3.60;3.40;;;;;;;;;;5049529;28;20033;-71
2023/04/23 09:31:48;;;;;;;3.47;3.20;;;;;;;;;;5046901;28;20039;-71
2023/04/23 09:34:18;;;;;;;3.10;2.92;;;;;;;;;;5047600;28;20047;-72
2023/04/23 09:36:45;;;;;;;3.10;2.90;;;;;;;;;;5041743;28;20095;-72
2023/04/23 09:39:15;;;;;;;3.15;3.00;;;;;;;;;;5037380;28;20041;-72
2023/04/23 09:41:41;;;;;;;3.03;2.92;;;;;;;;;;5041404;28;20477;-72
2023/04/23 09:44:12;;;;;;;3.40;3.20;;;;;;;;;;5043683;28;20497;-72
2023/04/23 09:46:41;;;;;;;3.28;3.08;;;;;;;;;;5045599;28;20497;-72
2023/04/23 09:49:09;;;;;;;3.67;3.38;;;;;;;;;;5047251;28;20041;-72
2023/04/23 09:51:35;;;;;;;3.58;3.30;;;;;;;;;;5046729;28;20037;-72
2023/04/23 09:54:04;;;;;;;3.35;3.10;;;;;;;;;;5048035;28;20040;-72
2023/04/23 09:56:31;;;;;;;3.40;3.10;;;;;;;;;;5044831;28;20106;-72
2023/04/23 09:58:57;;;;;;;3.40;3.20;;;;;;;;;;5046516;28;20033;-72
2023/04/23 10:01:29;;;;;;;3.42;3.17;;;;;;;;;;5046911;28;20385;-72
2023/04/23 10:03:58;;;;;;;3.53;3.30;;;;;;;;;;5048111;28;20032;-72
2023/04/23 10:06:28;;;;;;;3.50;3.30;;;;;;;;;;5044178;28;20041;-73
2023/04/23 10:08:56;;;;;;;3.15;3.05;;;;;;;;;;5047637;28;20039;-72
2023/04/23 10:11:24;;;;;;;4.00;3.80;;;;;;;;;;5042717;28;20071;-72
2023/04/23 10:13:50;;;;;;;3.53;3.33;;;;;;;;;;5043166;28;20527;-72
2023/04/23 10:16:17;;;;;;;3.53;3.33;;;;;;;;;;5043023;28;20132;-71
2023/04/23 10:18:43;;;;;;;3.40;3.20;;;;;;;;;;5045555;28;20032;-72
2023/04/23 10:21:10;;;;;;;3.40;3.17;;;;;;;;;;5044155;28;20130;-71
2023/04/23 10:23:39;;;;;;;3.83;3.53;;;;;;;;;;5043655;28;20033;-71
2023/04/23 10:26:05;;;;;;;3.22;3.13;;;;;;;;;;5043143;28;20045;-71
2023/04/23 10:28:33;;;;;;;3.80;3.58;;;;;;;;;;5048517;28;20033;-71
2023/04/23 10:30:59;;;;;;;3.88;3.33;;;;;;;;;;5042148;28;20099;-72
2023/04/23 10:33:27;;;;;;;3.40;3.20;;;;;;;;;;5050441;28;20036;-71
2023/04/23 10:35:55;;;;;;;3.22;3.03;;;;;;;;;;5046162;28;20145;-72
2023/04/23 10:38:22;;;;;;;3.22;2.90;;;;;;;;;;5051890;28;20446;-72
2023/04/23 10:40:50;;;;;;;3.10;2.78;;;;;;;;;;5049612;28;20037;-72
2023/04/23 10:43:18;;;;;;;3.17;3.00;;;;;;;;;;5049630;28;20307;-72
2023/04/23 10:45:43;;;;;;;2.95;2.85;;;;;;;;;;5050807;28;20033;-71
2023/04/23 10:48:09;;;;;;;3.00;2.80;;;;;;;;;;5048674;28;20033;-73
2023/04/23 10:50:35;;;;;;;3.55;2.80;;;;;;;;;;5047957;28;20068;-72
2023/04/23 10:53:02;;;;;;;3.30;3.10;;;;;;;;;;5050870;28;20033;-72
2023/04/23 10:55:29;;;;;;;2.92;2.72;;;;;;;;;;5045741;28;20124;-71
2023/04/23 10:58:04;;;;;;;3.83;3.10;;;;;;;;;;5039619;28;20031;-71
2023/04/23 11:00:44;;;;;;;3.30;3.08;;;;;;;;;;5041272;28;20542;-70
2023/04/23 11:03:35;;;;;;;3.00;2.90;;;;;;;;;;5043673;28;20249;-70
2023/04/23 11:06:05;;;;;;;3.05;2.88;;;;;;;;;;5046862;28;20044;-71
2023/04/23 11:08:31;;;;;;;3.50;3.20;;;;;;;;;;5043979;28;20496;-71
2023/04/23 11:10:58;;;;;;;3.50;3.30;;;;;;;;;;5032454;28;20071;-72
2023/04/23 11:13:26;;;;;;;3.30;3.20;;;;;;;;;;5043639;28;20062;-72
2023/04/23 11:16:21;;;;;;;3.23;3.10;;;;;;;;;;5026125;28;20520;-72
2023/04/23 11:18:57;;;;;;;3.03;2.90;;;;;;;;;;5045237;28;20303;-72
2023/04/23 11:22:05;;;;;;;3.15;3.00;;;;;;;;;;5044585;28;20128;-71
2023/04/23 11:24:43;;;;;;;3.10;2.90;;;;;;;;;;5041315;28;20102;-74
2023/04/23 11:27:17;;;;;;;3.13;3.03;;;;;;;;;;5039510;28;20086;-74
2023/04/23 11:29:44;;;;;;;3.10;2.90;;;;;;;;;;5041181;28;20029;-74
2023/04/23 11:32:14;;;;;;;3.03;2.92;;;;;;;;;;5037390;28;20164;-74
2023/04/23 11:34:44;;;;;;;3.35;3.25;;;;;;;;;;5038777;28;20029;-72
2023/04/23 11:37:11;;;;;;;3.40;3.20;;;;;;;;;;5039639;28;20035;-73
2023/04/23 11:39:37;;;;;;;3.30;3.10;;;;;;;;;;5037403;28;20095;-74
2023/04/23 11:42:05;;;;;;;3.45;3.20;;;;;;;;;;5043842;28;20033;-74
2023/04/23 11:44:30;;;;;;;4.53;3.22;;;;;;;;;;5040939;28;20128;-74
2023/04/23 11:47:01;;;;;;;2.88;2.78;;;;;;;;;;5038775;28;20104;-72
2023/04/23 11:49:26;;;;;;;3.72;3.45;;;;;;;;;;5039277;28;20459;-75
2023/04/23 11:51:52;;;;;;;3.20;3.10;;;;;;;;;;5034633;28;20556;-75
2023/04/23 11:54:23;;;;;;;5.07;3.10;;;;;;;;;;5038441;28;20416;-73
2023/04/23 11:56:52;;;;;;;3.53;3.33;;;;;;;;;;5040702;28;20702;-74
2023/04/23 11:59:18;;;;;;;3.65;3.35;;;;;;;;;;5043854;28;20949;-73
2023/04/23 12:01:49;;;;;;;3.40;3.20;;;;;;;;;;5043965;28;20029;-75
2023/04/23 12:04:17;;;;;;;3.33;2.95;;;;;;;;;;5043522;28;20047;-73
2023/04/23 12:06:45;;;;;;;3.30;3.10;;;;;;;;;;5041656;28;20535;-74
2023/04/23 12:09:12;;;;;;;2.97;2.87;;;;;;;;;;5052155;28;20036;-72
2023/04/23 12:11:42;;;;;;;3.20;3.00;;;;;;;;;;5041534;28;20209;-72
2023/04/23 12:14:09;;;;;;;2.90;2.80;;;;;;;;;;5045833;28;20028;-72
2023/04/23 12:16:39;;;;;;;3.75;3.08;;;;;;;;;;5041563;28;20036;-73
2023/04/23 12:19:08;;;;;;;3.72;3.40;;;;;;;;;;5044545;28;20076;-72
2023/04/23 12:21:33;;;;;;;4.20;3.90;;;;;;;;;;5047785;28;20041;-74
2023/04/23 12:24:02;;;;;;;3.65;3.00;;;;;;;;;;5024050;28;20133;-74
2023/04/23 12:26:28;;;;;;;3.63;3.33;;;;;;;;;;5047127;28;20602;-71
2023/04/23 12:28:57;;;;;;;3.78;3.53;;;;;;;;;;5047675;28;20061;-71
2023/04/23 12:31:28;;;;;;;3.85;3.65;;;;;;;;;;5041153;28;20045;-73
2023/04/23 12:34:00;;;;;;;3.67;3.38;;;;;;;;;;5035497;28;20524;-73
2023/04/23 12:36:30;;;;;;;3.60;3.30;;;;;;;;;;5043607;28;20033;-72
2023/04/23 12:39:18;;;;;;;3.50;3.30;;;;;;;;;;5035554;28;20041;-71
2023/04/23 12:41:44;;;;;;;3.42;3.33;;;;;;;;;;5033156;28;20112;-73
2023/04/23 12:44:10;;;;;;;3.92;3.10;;;;;;;;;;5034205;28;20051;-73
2023/04/23 12:46:36;;;;;;;3.28;3.15;;;;;;;;;;5043918;28;20029;-73
2023/04/23 12:49:01;;;;;;;3.72;3.53;;;;;;;;;;5022709;28;20037;-73
2023/04/23 12:51:27;;;;;;;3.90;3.70;;;;;;;;;;5040651;28;20060;-73
2023/04/23 12:53:52;;;;;;;3.72;3.53;;;;;;;;;;5038928;28;20033;-72
2023/04/23 12:56:19;;;;;;;3.88;3.60;;;;;;;;;;5041059;28;20043;-73
2023/04/23 12:58:45;;;;;;;3.50;3.30;;;;;;;;;;5039329;28;20043;-73
2023/04/23 13:01:13;;;;;;;3.63;3.40;;;;;;;;;;5036630;28;20041;-73
2023/04/23 13:03:39;;;;;;;3.60;3.40;;;;;;;;;;5037266;28;20044;-72
2023/04/23 13:06:06;;;;;;;3.72;3.47;;;;;;;;;;5036542;28;20045;-73
2023/04/23 13:08:33;;;;;;;3.80;3.50;;;;;;;;;;5041037;28;20092;-74
2023/04/23 13:10:59;;;;;;;3.72;3.42;;;;;;;;;;5043070;28;20431;-72
2023/04/23 13:13:26;;;;;;;3.33;3.13;;;;;;;;;;5039660;28;20048;-73
2023/04/23 13:15:52;;;;;;;3.40;3.20;;;;;;;;;;5039764;28;20032;-73
2023/04/23 13:18:18;;;;;;;6.05;3.35;;;;;;;;;;5039389;28;20590;-73
2023/04/23 13:20:44;;;;;;;3.22;3.03;;;;;;;;;;5044804;28;20044;-73
2023/04/23 13:23:11;;;;;;;4.07;3.50;;;;;;;;;;5040383;28;20475;-72
2023/04/23 13:25:36;;;;;;;3.90;3.47;;;;;;;;;;5023012;28;20025;-73
2023/04/23 13:28:02;;;;;;;3.30;3.10;;;;;;;;;;5040213;28;20104;-73
2023/04/23 13:30:28;;;;;;;3.45;3.25;;;;;;;;;;5041992;28;20093;-73
2023/04/23 13:32:56;;;;;;;3.35;3.13;;;;;;;;;;5035889;28;20036;-73
2023/04/23 13:35:22;;;;;;;3.38;3.17;;;;;;;;;;5043972;28;20554;-72
2023/04/23 13:37:48;;;;;;;3.65;3.45;;;;;;;;;;5042278;28;20037;-72
2023/04/23 13:40:14;;;;;;;3.97;3.40;;;;;;;;;;5034759;28;20662;-73
2023/04/23 13:42:40;;;;;;;3.30;3.20;;;;;;;;;;5040719;28;20121;-72
2023/04/23 13:45:06;;;;;;;3.30;3.00;;;;;;;;;;5039361;28;20037;-73
2023/04/23 13:47:33;;;;;;;3.50;3.30;;;;;;;;;;5039539;28;20392;-72
2023/04/23 13:50:05;;;;;;;3.38;3.10;;;;;;;;;;5039923;28;20082;-73
2023/04/23 13:52:32;;;;;;;3.33;3.13;;;;;;;;;;5037298;28;20059;-73
2023/04/23 13:54:59;;;;;;;3.50;3.20;;;;;;;;;;5041577;28;20060;-73
2023/04/23 13:57:25;;;;;;;3.60;3.40;;;;;;;;;;5038536;28;20033;-72
2023/04/23 13:59:54;;;;;;;4.38;3.78;;;;;;;;;;5040630;28;20528;-72
2023/04/23 14:02:20;;;;;;;3.90;3.70;;;;;;;;;;5041444;28;20033;-72
2023/04/23 14:04:46;;;;;;;3.47;3.28;;;;;;;;;;5045078;28;20035;-72
2023/04/23 14:07:11;;;;;;;3.70;3.40;;;;;;;;;;5038924;28;20037;-73
2023/04/23 14:09:37;;;;;;;3.70;3.50;;;;;;;;;;5037110;28;20040;-73
2023/04/23 14:12:03;;;;;;;3.80;3.60;;;;;;;;;;5039833;28;20041;-73
2023/04/23 14:14:29;;;;;;;4.45;3.90;;;;;;;;;;5049724;28;20056;-72
2023/04/23 14:16:55;;;;;;;3.70;3.40;;;;;;;;;;5051309;28;20511;-73
2023/04/23 14:19:20;;;;;;;3.88;3.67;;;;;;;;;;5044730;28;20043;-72
2023/04/23 14:21:46;;;;;;;4.00;3.70;;;;;;;;;;5049892;28;20492;-72
2023/04/23 14:24:16;;;;;;;3.83;3.60;;;;;;;;;;5051553;28;20116;-72
2023/04/23 14:26:43;;;;;;;3.65;3.35;;;;;;;;;;5050031;28;20036;-73
2023/04/23 14:29:17;;;;;;;3.70;3.50;;;;;;;;;;5047120;28;20459;-73
2023/04/23 14:31:43;;;;;;;3.60;3.40;;;;;;;;;;5047564;28;20037;-72
2023/04/23 14:34:09;;;;;;;3.95;3.65;;;;;;;;;;5050271;28;20033;-72
2023/04/23 14:36:35;;;;;;;4.43;3.28;;;;;;;;;;5047194;28;20075;-72
2023/04/23 14:39:03;;;;;;;3.78;3.55;;;;;;;;;;5053398;28;20091;-73
2023/04/23 14:41:31;;;;;;;3.65;3.10;;;;;;;;;;5048831;28;20496;-72
2023/04/23 14:43:58;;;;;;;3.20;3.00;;;;;;;;;;5043373;28;20109;-72